createdAt,value
2022-10-09T00:00:59.626Z,99.99
2022-10-09T00:01:59.698Z,99.99
2022-10-09T00:02:59.598Z,99.99
2022-10-09T00:03:59.606Z,99.99
2022-10-09T00:04:59.640Z,99.99
2022-10-09T00:05:59.558Z,99.99
2022-10-09T00:06:59.571Z,99.99
2022-10-09T00:07:59.564Z,99.99
2022-10-09T00:08:59.567Z,99.99
2022-10-09T00:09:59.506Z,99.99
2022-10-09T00:10:59.496Z,99.99
2022-10-09T00:11:59.496Z,99.99
2022-10-09T00:12:59.516Z,99.99
2022-10-09T00:13:59.512Z,99.99
2022-10-09T00:14:59.636Z,99.99
2022-10-09T00:15:59.483Z,99.99
2022-10-09T00:16:59.487Z,99.99
2022-10-09T00:17:59.495Z,99.99
2022-10-09T00:18:59.439Z,99.99
2022-10-09T00:19:59.450Z,99.99
2022-10-09T00:20:59.478Z,99.99
2022-10-09T00:21:59.427Z,99.99
2022-10-09T00:22:59.368Z,99.99
2022-10-09T00:23:59.364Z,99.99
2022-10-09T00:24:59.379Z,99.99
2022-10-09T00:25:59.353Z,99.99
2022-10-09T00:26:59.384Z,99.99
2022-10-09T00:27:59.303Z,99.99
2022-10-09T00:28:59.399Z,99.99
2022-10-09T00:29:59.322Z,99.99
2022-10-09T00:30:59.340Z,99.99
2022-10-09T00:31:59.330Z,99.99
2022-10-09T00:32:59.265Z,99.99
2022-10-09T00:33:59.239Z,99.99
2022-10-09T00:34:59.233Z,99.99
2022-10-09T00:35:59.221Z,99.99
2022-10-09T00:36:59.529Z,99.99
2022-10-09T00:37:59.288Z,99.99
2022-10-09T00:38:59.195Z,99.99
2022-10-09T00:39:59.178Z,99.99
2022-10-09T00:40:59.185Z,99.99
2022-10-09T00:41:59.191Z,99.99
2022-10-09T00:42:59.165Z,99.99
2022-10-09T00:43:59.167Z,99.99
2022-10-09T00:44:59.111Z,99.99
2022-10-09T00:45:59.194Z,99.99
2022-10-09T00:46:59.124Z,99.99
2022-10-09T00:47:59.132Z,99.99
2022-10-09T00:48:59.094Z,99.99
2022-10-09T00:49:59.103Z,99.99
2022-10-09T00:50:59.054Z,99.99
2022-10-09T00:51:59.060Z,99.99
2022-10-09T00:52:59.051Z,99.99
2022-10-09T00:53:59.033Z,99.99
2022-10-09T00:54:59.067Z,99.99
2022-10-09T00:55:59.073Z,99.99
2022-10-09T00:56:58.988Z,99.99
2022-10-09T00:57:58.995Z,99.99
2022-10-09T00:58:58.994Z,99.99
2022-10-09T00:59:58.999Z,99.99
2022-10-09T01:00:59.040Z,99.99
2022-10-09T01:01:59.105Z,99.99
2022-10-09T01:02:58.989Z,99.99
2022-10-09T01:03:58.920Z,99.99
2022-10-09T01:04:58.909Z,99.99
2022-10-09T01:05:58.885Z,99.99
2022-10-09T01:06:58.915Z,99.99
2022-10-09T01:07:58.859Z,99.99
2022-10-09T01:08:58.858Z,99.99
2022-10-09T01:09:58.867Z,99.99
2022-10-09T01:10:58.874Z,99.99
2022-10-09T01:11:58.877Z,99.99
2022-10-09T01:12:58.795Z,99.99
2022-10-09T01:13:58.808Z,99.99
2022-10-09T01:14:58.812Z,99.99
2022-10-09T01:15:58.838Z,99.99
2022-10-09T01:16:58.805Z,99.99
2022-10-09T01:17:58.790Z,99.99
2022-10-09T01:18:58.789Z,99.99
2022-10-09T01:19:58.745Z,99.99
2022-10-09T01:20:58.741Z,99.99
2022-10-09T01:21:58.742Z,99.99
2022-10-09T01:22:58.682Z,99.99
2022-10-09T01:23:58.727Z,99.99
2022-10-09T01:24:58.715Z,99.99
2022-10-09T01:25:58.678Z,99.99
2022-10-09T01:26:58.697Z,99.99
2022-10-09T01:27:58.676Z,99.99
2022-10-09T01:28:58.619Z,99.99
2022-10-09T01:29:58.661Z,99.99
2022-10-09T01:30:58.672Z,99.99
2022-10-09T01:31:58.607Z,99.99
2022-10-09T01:32:58.615Z,99.99
2022-10-09T01:33:58.588Z,99.99
2022-10-09T01:34:58.629Z,99.99
2022-10-09T01:35:58.609Z,99.99
2022-10-09T01:36:58.548Z,99.99
2022-10-09T01:37:58.555Z,99.99
2022-10-09T01:38:58.530Z,99.99
2022-10-09T01:39:58.493Z,99.99
2022-10-09T01:40:58.567Z,99.99
2022-10-09T01:41:58.481Z,99.99
2022-10-09T01:42:58.488Z,99.99
2022-10-09T01:43:58.479Z,99.99
2022-10-09T01:44:58.461Z,99.99
2022-10-09T01:45:58.542Z,99.99
2022-10-09T01:46:58.413Z,99.99
2022-10-09T01:47:58.423Z,99.99
2022-10-09T01:48:58.418Z,99.99
2022-10-09T01:49:58.434Z,99.99
2022-10-09T01:50:58.367Z,99.99
2022-10-09T01:51:58.368Z,99.99
2022-10-09T01:52:58.375Z,99.99
2022-10-09T01:53:58.349Z,99.99
2022-10-09T01:54:58.362Z,99.99
2022-10-09T01:55:58.334Z,99.99
2022-10-09T01:56:58.317Z,99.99
2022-10-09T01:57:58.346Z,99.99
2022-10-09T01:58:58.289Z,99.99
2022-10-09T01:59:58.297Z,99.99
2022-10-09T02:00:58.293Z,99.99
2022-10-09T02:01:58.389Z,99.99
2022-10-09T02:02:58.340Z,99.99
2022-10-09T02:03:58.286Z,99.99
2022-10-09T02:04:58.218Z,99.99
2022-10-09T02:05:58.206Z,99.99
2022-10-09T02:06:58.209Z,99.99
2022-10-09T02:07:58.214Z,99.99
2022-10-09T02:08:58.171Z,99.99
2022-10-09T02:09:58.228Z,99.99
2022-10-09T02:10:58.168Z,99.99
2022-10-09T02:11:58.160Z,99.99
2022-10-09T02:12:58.171Z,99.99
2022-10-09T02:13:58.111Z,99.99
2022-10-09T02:14:58.104Z,99.99
2022-10-09T02:15:58.210Z,99.99
2022-10-09T02:16:58.117Z,99.99
2022-10-09T02:17:58.077Z,99.99
2022-10-09T02:18:58.082Z,99.99
2022-10-09T02:19:58.125Z,99.99
2022-10-09T02:20:58.038Z,99.99
2022-10-09T02:21:58.454Z,99.99
2022-10-09T02:22:58.041Z,99.99
2022-10-09T02:23:58.014Z,99.99
2022-10-09T02:24:57.982Z,99.99
2022-10-09T02:25:58.025Z,99.99
2022-10-09T02:26:57.980Z,99.99
2022-10-09T02:27:57.980Z,99.99
2022-10-09T02:28:57.968Z,99.99
2022-10-09T02:29:58.081Z,99.99
2022-10-09T02:30:58.002Z,99.99
2022-10-09T02:31:57.906Z,99.99
2022-10-09T02:32:58.005Z,99.99
2022-10-09T02:33:57.911Z,99.99
2022-10-09T02:34:57.920Z,99.99
2022-10-09T02:35:57.928Z,99.99
2022-10-09T02:36:57.861Z,99.99
2022-10-09T02:37:57.870Z,99.99
2022-10-09T02:38:57.914Z,99.99
2022-10-09T02:39:57.849Z,99.99
2022-10-09T02:40:57.853Z,99.99
2022-10-09T02:41:57.837Z,99.99
2022-10-09T02:42:57.780Z,99.99
2022-10-09T02:43:57.783Z,99.99
2022-10-09T02:44:57.805Z,99.99
2022-10-09T02:45:57.795Z,99.99
2022-10-09T02:46:57.789Z,99.99
2022-10-09T02:47:57.801Z,99.99
2022-10-09T02:48:57.716Z,99.99
2022-10-09T02:49:57.720Z,99.99
2022-10-09T02:50:57.695Z,99.99
2022-10-09T02:51:57.736Z,99.99
2022-10-09T02:52:57.983Z,99.99
2022-10-09T02:53:57.670Z,99.99
2022-10-09T02:54:57.653Z,99.99
2022-10-09T02:55:57.660Z,99.99
2022-10-09T02:56:57.655Z,99.99
2022-10-09T02:57:57.674Z,99.99
2022-10-09T02:58:57.602Z,99.99
2022-10-09T02:59:57.596Z,99.99
2022-10-09T03:00:57.609Z,99.99
2022-10-09T03:01:57.748Z,99.99
2022-10-09T03:02:57.645Z,99.99
2022-10-09T03:03:57.575Z,99.99
2022-10-09T03:04:57.540Z,99.99
2022-10-09T03:05:57.531Z,99.99
2022-10-09T03:06:57.519Z,99.99
2022-10-09T03:07:57.541Z,99.99
2022-10-09T03:08:57.498Z,99.99
2022-10-09T03:09:57.476Z,99.99
2022-10-09T03:10:57.510Z,99.99
2022-10-09T03:11:57.469Z,99.99
2022-10-09T03:12:57.470Z,99.99
2022-10-09T03:13:57.469Z,99.99
2022-10-09T03:14:57.446Z,99.99
2022-10-09T03:15:57.486Z,99.99
2022-10-09T03:16:57.417Z,99.99
2022-10-09T03:17:57.403Z,99.99
2022-10-09T03:18:57.412Z,99.99
2022-10-09T03:19:57.409Z,99.99
2022-10-09T03:20:57.352Z,99.99
2022-10-09T03:21:57.348Z,99.99
2022-10-09T03:22:57.408Z,99.99
2022-10-09T03:23:57.399Z,99.99
2022-10-09T03:24:57.349Z,99.99
2022-10-09T03:25:57.316Z,99.99
2022-10-09T03:26:57.300Z,99.99
2022-10-09T03:27:57.291Z,99.99
2022-10-09T03:28:57.276Z,99.99
2022-10-09T03:29:57.287Z,99.99
2022-10-09T03:30:57.312Z,99.99
2022-10-09T03:31:57.307Z,99.99
2022-10-09T03:32:57.287Z,99.99
2022-10-09T03:33:57.214Z,99.99
2022-10-09T03:34:57.250Z,99.99
2022-10-09T03:35:57.207Z,99.99
2022-10-09T03:36:57.217Z,99.99
2022-10-09T03:37:57.195Z,99.99
2022-10-09T03:38:57.164Z,99.99
2022-10-09T03:39:57.145Z,99.99
2022-10-09T03:40:57.246Z,99.99
2022-10-09T03:41:57.148Z,99.99
2022-10-09T03:42:57.121Z,99.99
2022-10-09T03:43:57.093Z,99.99
2022-10-09T03:44:57.080Z,99.99
2022-10-09T03:46:00.927Z,99.99
2022-10-09T03:46:57.156Z,99.99
2022-10-09T03:47:57.109Z,99.99
2022-10-09T03:48:57.070Z,99.99
2022-10-09T03:49:57.077Z,99.99
2022-10-09T03:50:57.077Z,99.99
2022-10-09T03:51:57.014Z,99.99
2022-10-09T03:52:57.017Z,99.99
2022-10-09T03:53:56.995Z,99.99
2022-10-09T03:54:57.008Z,99.99
2022-10-09T03:55:57.011Z,99.99
2022-10-09T03:56:57.016Z,99.99
2022-10-09T03:57:56.952Z,99.99
2022-10-09T03:58:56.971Z,99.99
2022-10-09T03:59:56.931Z,99.99
2022-10-09T04:00:56.939Z,99.99
2022-10-09T04:01:56.900Z,99.99
2022-10-09T04:02:56.938Z,99.99
2022-10-09T04:03:56.907Z,99.99
2022-10-09T04:04:56.898Z,99.99
2022-10-09T04:05:56.874Z,99.99
2022-10-09T04:06:56.843Z,99.99
2022-10-09T04:07:56.920Z,99.99
2022-10-09T04:08:56.822Z,99.99
2022-10-09T04:09:56.831Z,99.99
2022-10-09T04:10:56.808Z,99.99
2022-10-09T04:11:56.780Z,99.99
2022-10-09T04:12:56.793Z,99.99
2022-10-09T04:13:56.765Z,99.99
2022-10-09T04:14:56.777Z,99.99
2022-10-09T04:15:56.833Z,99.99
2022-10-09T04:16:56.745Z,99.99
2022-10-09T04:17:56.715Z,99.99
2022-10-09T04:18:56.754Z,99.99
2022-10-09T04:19:56.704Z,99.99
2022-10-09T04:20:56.710Z,99.99
2022-10-09T04:21:56.682Z,99.99
2022-10-09T04:22:56.654Z,99.99
2022-10-09T04:23:56.699Z,99.99
2022-10-09T04:24:56.667Z,99.99
2022-10-09T04:25:56.643Z,99.99
2022-10-09T04:26:56.615Z,99.99
2022-10-09T04:27:56.622Z,99.99
2022-10-09T04:28:56.588Z,99.99
2022-10-09T04:29:56.660Z,99.99
2022-10-09T04:30:56.645Z,99.99
2022-10-09T04:31:56.625Z,99.99
2022-10-09T04:32:56.584Z,99.99
2022-10-09T04:33:56.588Z,99.99
2022-10-09T04:34:56.593Z,99.99
2022-10-09T04:35:56.511Z,99.99
2022-10-09T04:36:56.545Z,99.99
2022-10-09T04:37:56.506Z,99.99
2022-10-09T04:38:56.517Z,99.99
2022-10-09T04:39:56.466Z,99.99
2022-10-09T04:40:56.467Z,99.99
2022-10-09T04:41:56.508Z,99.99
2022-10-09T04:42:56.455Z,99.99
2022-10-09T04:43:56.450Z,99.99
2022-10-09T04:44:56.533Z,99.99
2022-10-09T04:45:56.437Z,99.99
2022-10-09T04:46:56.403Z,99.99
2022-10-09T04:47:56.392Z,99.99
2022-10-09T04:48:56.396Z,99.99
2022-10-09T04:49:56.357Z,99.99
2022-10-09T04:50:56.358Z,99.99
2022-10-09T04:51:56.409Z,99.99
2022-10-09T04:52:56.336Z,99.99
2022-10-09T04:54:00.460Z,99.99
2022-10-09T04:54:56.322Z,99.99
2022-10-09T04:55:56.335Z,99.99
2022-10-09T04:56:56.311Z,99.99
2022-10-09T04:57:56.276Z,99.99
2022-10-09T04:58:56.256Z,99.99
2022-10-09T04:59:56.288Z,99.99
2022-10-09T05:00:56.360Z,99.99
2022-10-09T05:01:56.288Z,99.99
2022-10-09T05:02:56.213Z,99.99
2022-10-09T05:03:56.213Z,99.99
2022-10-09T05:04:56.198Z,99.99
2022-10-09T05:05:56.203Z,99.99
2022-10-09T05:06:56.199Z,99.99
2022-10-09T05:07:56.208Z,99.99
2022-10-09T05:08:56.163Z,99.99
2022-10-09T05:09:56.132Z,99.99
2022-10-09T05:10:56.142Z,99.99
2022-10-09T05:11:56.131Z,99.99
2022-10-09T05:12:56.136Z,99.99
2022-10-09T05:13:56.148Z,99.99
2022-10-09T05:14:56.085Z,99.99
2022-10-09T05:15:56.069Z,99.99
2022-10-09T05:17:12.940Z,99.99
2022-10-09T05:17:57.094Z,99.99
2022-10-09T05:18:56.097Z,99.99
2022-10-09T05:19:56.018Z,99.99
2022-10-09T05:20:56.021Z,99.99
2022-10-09T05:21:56.057Z,99.99
2022-10-09T05:22:56.000Z,99.99
2022-10-09T05:23:55.987Z,99.99
2022-10-09T05:24:56.024Z,99.99
2022-10-09T05:25:55.956Z,99.99
2022-10-09T05:26:55.943Z,99.99
2022-10-09T05:27:55.945Z,99.99
2022-10-09T05:28:55.945Z,99.99
2022-10-09T05:29:55.958Z,99.99
2022-10-09T05:30:55.966Z,99.99
2022-10-09T05:31:55.957Z,99.99
2022-10-09T05:32:55.877Z,99.99
2022-10-09T05:33:55.872Z,99.99
2022-10-09T05:34:55.857Z,99.99
2022-10-09T05:35:55.887Z,99.99
2022-10-09T05:36:55.826Z,99.99
2022-10-09T05:37:55.910Z,99.99
2022-10-09T05:38:55.842Z,99.99
2022-10-09T05:39:55.813Z,99.99
2022-10-09T05:40:55.822Z,99.99
2022-10-09T05:41:55.828Z,99.99
2022-10-09T05:42:55.764Z,99.99
2022-10-09T05:43:56.005Z,99.99
2022-10-09T05:44:55.777Z,99.99
2022-10-09T05:45:55.821Z,99.99
2022-10-09T05:46:55.735Z,99.99
2022-10-09T05:47:55.737Z,99.99
2022-10-09T05:48:55.791Z,99.99
2022-10-09T05:49:55.755Z,99.99
2022-10-09T05:50:55.718Z,99.99
2022-10-09T05:51:55.692Z,99.99
2022-10-09T05:52:55.700Z,99.99
2022-10-09T05:53:55.641Z,99.99
2022-10-09T05:54:55.643Z,99.99
2022-10-09T05:55:55.631Z,99.99
2022-10-09T05:56:55.671Z,99.99
2022-10-09T05:57:55.637Z,99.99
2022-10-09T05:58:55.642Z,99.99
2022-10-09T05:59:55.578Z,99.99
2022-10-09T06:00:55.605Z,99.99
2022-10-09T06:01:55.609Z,99.99
2022-10-09T06:02:55.635Z,99.99
2022-10-09T06:03:55.567Z,99.99
2022-10-09T06:04:55.517Z,99.99
2022-10-09T06:05:55.516Z,99.99
2022-10-09T06:06:55.510Z,99.99
2022-10-09T06:07:55.492Z,99.99
2022-10-09T06:08:55.511Z,99.99
2022-10-09T06:09:55.483Z,99.99
2022-10-09T06:10:55.449Z,99.99
2022-10-09T06:11:55.458Z,99.99
2022-10-09T06:12:55.481Z,99.99
2022-10-09T06:13:55.448Z,99.99
2022-10-09T06:14:55.457Z,99.99
2022-10-09T06:15:55.403Z,99.99
2022-10-09T06:16:55.514Z,99.99
2022-10-09T06:17:55.437Z,99.99
2022-10-09T06:18:55.371Z,99.99
2022-10-09T06:19:55.389Z,99.99
2022-10-09T06:20:55.375Z,99.99
2022-10-09T06:21:55.407Z,99.99
2022-10-09T06:22:55.330Z,99.99
2022-10-09T06:23:55.310Z,99.99
2022-10-09T06:24:55.302Z,99.99
2022-10-09T06:25:55.318Z,99.99
2022-10-09T06:26:55.317Z,99.99
2022-10-09T06:27:55.301Z,99.99
2022-10-09T06:28:55.271Z,99.99
2022-10-09T06:29:55.251Z,99.99
2022-10-09T06:30:55.295Z,99.99
2022-10-09T06:31:55.250Z,99.99
2022-10-09T06:32:55.230Z,99.99
2022-10-09T06:33:55.265Z,99.99
2022-10-09T06:34:55.245Z,99.99
2022-10-09T06:36:01.623Z,99.99
2022-10-09T06:36:56.180Z,99.99
2022-10-09T06:38:03.557Z,99.99
2022-10-09T06:38:55.134Z,99.99
2022-10-09T06:39:55.134Z,99.99
2022-10-09T06:40:55.123Z,99.99
2022-10-09T06:41:55.116Z,99.99
2022-10-09T06:42:55.131Z,99.99
2022-10-09T06:43:55.138Z,99.99
2022-10-09T06:44:55.087Z,99.99
2022-10-09T06:45:55.208Z,99.99
2022-10-09T06:46:55.084Z,99.99
2022-10-09T06:47:55.054Z,99.99
2022-10-09T06:48:55.062Z,99.99
2022-10-09T06:49:55.035Z,99.99
2022-10-09T06:50:55.008Z,99.99
2022-10-09T06:51:55.050Z,99.99
2022-10-09T06:52:54.996Z,99.99
2022-10-09T06:53:55.007Z,99.99
2022-10-09T06:54:55.003Z,99.99
2022-10-09T06:55:54.982Z,99.99
2022-10-09T06:56:54.943Z,99.99
2022-10-09T06:57:54.928Z,99.99
2022-10-09T06:58:54.926Z,99.99
2022-10-09T06:59:55.546Z,99.99
2022-10-09T07:00:54.936Z,99.99
2022-10-09T07:01:54.925Z,99.99
2022-10-09T07:02:54.881Z,99.99
2022-10-09T07:03:54.869Z,99.99
2022-10-09T07:04:54.882Z,99.99
2022-10-09T07:05:54.868Z,99.99
2022-10-09T07:06:54.849Z,99.99
2022-10-09T07:07:54.852Z,99.99
2022-10-09T07:08:54.865Z,99.99
2022-10-09T07:09:54.806Z,99.99
2022-10-09T07:10:54.820Z,99.99
2022-10-09T07:11:54.775Z,99.99
2022-10-09T07:12:54.747Z,99.99
2022-10-09T07:13:54.760Z,99.99
2022-10-09T07:14:54.738Z,99.99
2022-10-09T07:15:54.820Z,99.99
2022-10-09T07:16:54.769Z,99.99
2022-10-09T07:17:54.723Z,99.99
2022-10-09T07:18:54.680Z,99.99
2022-10-09T07:19:54.671Z,99.99
2022-10-09T07:20:54.680Z,99.99
2022-10-09T07:21:54.671Z,99.99
2022-10-09T07:22:54.679Z,99.99
2022-10-09T07:23:54.668Z,99.99
2022-10-09T07:24:54.672Z,99.99
2022-10-09T07:25:54.668Z,99.99
2022-10-09T07:26:54.606Z,99.99
2022-10-09T07:27:54.617Z,99.99
2022-10-09T07:28:54.621Z,99.99
2022-10-09T07:29:54.558Z,99.99
2022-10-09T07:30:54.649Z,99.99
2022-10-09T07:31:55.060Z,99.99
2022-10-09T07:32:54.545Z,99.99
2022-10-09T07:33:54.524Z,99.99
2022-10-09T07:34:54.527Z,99.99
2022-10-09T07:35:54.499Z,99.99
2022-10-09T07:36:54.481Z,99.99
2022-10-09T07:37:54.490Z,99.99
2022-10-09T07:38:54.497Z,99.99
2022-10-09T07:39:54.494Z,99.99
2022-10-09T07:40:54.474Z,99.99
2022-10-09T07:41:54.471Z,99.99
2022-10-09T07:42:54.421Z,99.99
2022-10-09T07:43:54.433Z,99.99
2022-10-09T07:44:54.421Z,99.99
2022-10-09T07:45:54.447Z,99.99
2022-10-09T07:46:54.369Z,99.99
2022-10-09T07:47:54.352Z,99.99
2022-10-09T07:48:54.379Z,99.99
2022-10-09T07:49:54.367Z,99.98
2022-10-09T07:50:54.360Z,99.32
2022-10-09T07:51:54.346Z,99.63
2022-10-09T07:52:54.309Z,99.99
2022-10-09T07:53:54.291Z,99.73
2022-10-09T07:54:54.387Z,99.63
2022-10-09T07:55:54.294Z,99.99
2022-10-09T07:56:54.271Z,99.27
2022-10-09T07:57:54.241Z,98.29
2022-10-09T07:58:54.247Z,98.45
2022-10-09T07:59:54.295Z,98.04
2022-10-09T08:00:54.241Z,97.83
2022-10-09T08:01:54.346Z,97.94
2022-10-09T08:02:54.346Z,97.79
2022-10-09T08:03:54.180Z,97.48
2022-10-09T08:04:54.222Z,97.38
2022-10-09T08:05:54.168Z,98.30
2022-10-09T08:06:54.169Z,98.30
2022-10-09T08:07:54.171Z,97.95
2022-10-09T08:08:54.176Z,97.79
2022-10-09T08:09:54.153Z,97.44
2022-10-09T08:10:54.103Z,97.38
2022-10-09T08:11:54.108Z,97.64
2022-10-09T08:12:54.104Z,97.54
2022-10-09T08:13:54.086Z,96.51
2022-10-09T08:14:54.118Z,96.41
2022-10-09T08:15:54.099Z,97.64
2022-10-09T08:16:54.067Z,97.03
2022-10-09T08:17:54.032Z,96.62
2022-10-09T08:18:54.045Z,96.51
2022-10-09T08:19:54.058Z,96.10
2022-10-09T08:20:54.007Z,96.67
2022-10-09T08:21:53.994Z,96.51
2022-10-09T08:22:53.979Z,97.64
2022-10-09T08:23:53.974Z,96.82
2022-10-09T08:24:53.978Z,97.49
2022-10-09T08:25:53.927Z,96.67
2022-10-09T08:26:53.928Z,96.88
2022-10-09T08:27:53.911Z,96.78
2022-10-09T08:28:54.017Z,96.47
2022-10-09T08:29:53.915Z,95.65
2022-10-09T08:30:53.998Z,95.54
2022-10-09T08:31:53.859Z,96.42
2022-10-09T08:32:53.847Z,96.12
2022-10-09T08:33:53.850Z,96.63
2022-10-09T08:34:53.860Z,96.94
2022-10-09T08:35:53.853Z,96.42
2022-10-09T08:36:53.832Z,96.01
2022-10-09T08:37:53.797Z,96.53
2022-10-09T08:38:53.782Z,96.63
2022-10-09T08:39:53.794Z,96.32
2022-10-09T08:40:58.019Z,95.97
2022-10-09T08:41:53.800Z,95.66
2022-10-09T08:42:53.738Z,95.56
2022-10-09T08:43:53.776Z,95.46
2022-10-09T08:44:53.786Z,95.66
2022-10-09T08:45:53.719Z,95.05
2022-10-09T08:46:53.805Z,95.46
2022-10-09T08:47:53.706Z,95.76
2022-10-09T08:48:53.739Z,95.87
2022-10-09T08:49:53.717Z,95.66
2022-10-09T08:50:53.667Z,95.36
2022-10-09T08:51:53.656Z,95.31
2022-10-09T08:52:53.950Z,95.51
2022-10-09T08:53:53.630Z,95.62
2022-10-09T08:54:53.676Z,95.62
2022-10-09T08:55:53.609Z,94.80
2022-10-09T08:56:53.599Z,94.39
2022-10-09T08:57:53.618Z,94.14
2022-10-09T08:58:53.600Z,93.84
2022-10-09T08:59:53.544Z,94.96
2022-10-09T09:00:53.588Z,94.45
2022-10-09T09:01:53.685Z,94.34
2022-10-09T09:02:53.795Z,94.45
2022-10-09T09:03:53.535Z,94.34
2022-10-09T09:04:54.777Z,93.84
2022-10-09T09:05:53.518Z,94.14
2022-10-09T09:06:53.469Z,94.24
2022-10-09T09:07:53.476Z,94.04
2022-10-09T09:08:53.464Z,93.79
2022-10-09T09:09:53.477Z,95.02
2022-10-09T09:10:53.450Z,94.45
2022-10-09T09:11:53.418Z,95.84
2022-10-09T09:12:53.430Z,94.06
2022-10-09T09:13:53.414Z,93.69
2022-10-09T09:14:54.033Z,93.48
2022-10-09T09:15:53.445Z,93.74
2022-10-09T09:16:53.355Z,93.95
2022-10-09T09:17:53.357Z,93.95
2022-10-09T09:18:53.342Z,92.72
2022-10-09T09:19:53.335Z,93.24
2022-10-09T09:20:53.344Z,92.32
2022-10-09T09:21:53.354Z,92.21
2022-10-09T09:22:53.290Z,93.03
2022-10-09T09:23:53.279Z,93.95
2022-10-09T09:24:53.322Z,92.68
2022-10-09T09:25:53.276Z,92.88
2022-10-09T09:26:53.280Z,93.19
2022-10-09T09:27:53.291Z,92.27
2022-10-09T09:28:53.322Z,92.88
2022-10-09T09:29:53.275Z,92.27
2022-10-09T09:30:53.236Z,92.17
2022-10-09T09:31:53.235Z,92.07
2022-10-09T09:32:53.193Z,92.68
2022-10-09T09:33:53.162Z,92.17
2022-10-09T09:34:53.149Z,91.96
2022-10-09T09:35:53.212Z,90.84
2022-10-09T09:36:53.156Z,92.27
2022-10-09T09:37:53.124Z,91.86
2022-10-09T09:40:35.029Z,91.35
2022-10-09T09:40:54.123Z,91.92
2022-10-09T09:41:53.094Z,92.13
2022-10-09T09:42:53.086Z,92.13
2022-10-09T09:43:53.063Z,91.82
2022-10-09T09:44:53.035Z,91.31
2022-10-09T09:45:53.043Z,91.20
2022-10-09T09:46:53.146Z,91.27
2022-10-09T09:47:53.032Z,92.02
2022-10-09T09:48:53.025Z,91.47
2022-10-09T09:49:53.005Z,91.47
2022-10-09T09:51:10.265Z,91.27
2022-10-09T09:51:53.986Z,90.96
2022-10-09T09:52:52.962Z,92.19
2022-10-09T09:53:52.973Z,92.29
2022-10-09T09:54:52.974Z,91.16
2022-10-09T09:55:52.908Z,91.27
2022-10-09T09:57:11.922Z,91.33
2022-10-09T09:57:53.924Z,90.92
2022-10-09T09:58:52.888Z,90.71
2022-10-09T09:59:52.905Z,89.43
2022-10-09T10:00:52.938Z,89.59
2022-10-09T10:01:52.925Z,89.79
2022-10-09T10:02:52.833Z,88.78
2022-10-09T10:03:52.954Z,89.39
2022-10-09T10:04:52.843Z,90.10
2022-10-09T10:05:52.843Z,90.51
2022-10-09T10:06:52.815Z,90.67
2022-10-09T10:07:52.792Z,89.04
2022-10-09T10:08:52.765Z,88.73
2022-10-09T10:09:52.772Z,89.45
2022-10-09T10:10:52.765Z,88.73
2022-10-09T10:11:52.748Z,88.84
2022-10-09T10:12:53.023Z,90.06
2022-10-09T10:13:52.701Z,88.84
2022-10-09T10:14:52.754Z,88.32
2022-10-09T10:15:52.766Z,88.49
2022-10-09T10:16:52.712Z,89.61
2022-10-09T10:17:52.686Z,88.53
2022-10-09T10:18:52.695Z,89.20
2022-10-09T10:19:52.637Z,89.20
2022-10-09T10:20:53.171Z,88.69
2022-10-09T10:21:52.639Z,88.90
2022-10-09T10:22:52.648Z,87.88
2022-10-09T10:23:52.623Z,87.77
2022-10-09T10:24:52.684Z,88.08
2022-10-09T10:25:52.669Z,88.39
2022-10-09T10:26:52.571Z,87.84
2022-10-09T10:27:52.593Z,87.84
2022-10-09T10:28:52.558Z,87.94
2022-10-09T10:29:52.524Z,87.43
2022-10-09T10:30:52.569Z,87.73
2022-10-09T10:31:52.522Z,87.59
2022-10-09T10:32:52.513Z,87.90
2022-10-09T10:33:52.517Z,87.59
2022-10-09T10:34:52.526Z,87.38
2022-10-09T10:35:52.477Z,85.25
2022-10-09T10:36:52.509Z,85.45
2022-10-09T10:37:52.612Z,85.96
2022-10-09T10:38:52.456Z,86.06
2022-10-09T10:39:52.429Z,85.72
2022-10-09T10:40:52.404Z,85.75
2022-10-09T10:41:52.445Z,85.45
2022-10-09T10:42:55.023Z,85.25
2022-10-09T10:43:53.418Z,85.41
2022-10-09T10:44:52.419Z,84.90
2022-10-09T10:45:52.337Z,86.02
2022-10-09T10:46:52.430Z,85.41
2022-10-09T10:47:52.797Z,85.51
2022-10-09T10:48:52.314Z,86.22
2022-10-09T10:49:52.319Z,85.51
2022-10-09T10:50:52.338Z,86.13
2022-10-09T10:51:52.266Z,86.13
2022-10-09T10:52:52.259Z,85.11
2022-10-09T10:53:52.625Z,85.61
2022-10-09T10:54:52.255Z,83.58
2022-10-09T10:55:52.262Z,83.78
2022-10-09T10:56:52.245Z,83.68
2022-10-09T10:57:52.478Z,85.41
2022-10-09T10:58:52.258Z,83.68
2022-10-09T10:59:52.199Z,83.98
2022-10-09T11:00:52.314Z,84.29
2022-10-09T11:01:52.176Z,83.78
2022-10-09T11:02:52.505Z,83.74
2022-10-09T11:03:52.130Z,84.25
2022-10-09T11:04:52.156Z,84.66
2022-10-09T11:05:52.132Z,85.47
2022-10-09T11:06:52.130Z,85.37
2022-10-09T11:07:54.475Z,83.74
2022-10-09T11:08:52.144Z,84.35
2022-10-09T11:09:52.063Z,82.32
2022-10-09T11:10:52.095Z,84.35
2022-10-09T11:11:52.062Z,83.64
2022-10-09T11:12:52.085Z,83.64
2022-10-09T11:13:52.079Z,83.54
2022-10-09T11:14:52.006Z,82.93
2022-10-09T11:15:52.033Z,82.62
2022-10-09T11:16:52.031Z,83.40
2022-10-09T11:17:52.007Z,83.09
2022-10-09T11:18:52.011Z,82.28
2022-10-09T11:19:51.951Z,82.28
2022-10-09T11:20:51.939Z,82.59
2022-10-09T11:21:51.946Z,80.04
2022-10-09T11:22:52.183Z,80.45
2022-10-09T11:23:51.943Z,80.85
2022-10-09T11:24:51.924Z,80.59
2022-10-09T11:25:51.932Z,81.57
2022-10-09T11:26:51.895Z,81.57
2022-10-09T11:27:51.879Z,80.85
2022-10-09T11:28:51.965Z,81.06
2022-10-09T11:29:51.859Z,80.96
2022-10-09T11:30:51.824Z,80.24
2022-10-09T11:31:51.934Z,80.04
2022-10-09T11:32:51.829Z,79.23
2022-10-09T11:33:51.805Z,81.67
2022-10-09T11:34:51.814Z,80.85
2022-10-09T11:35:51.795Z,80.55
2022-10-09T11:36:51.763Z,81.02
2022-10-09T11:37:51.930Z,80.31
2022-10-09T11:38:51.752Z,80.11
2022-10-09T11:39:51.747Z,80.92
2022-10-09T11:40:51.727Z,80.41
2022-10-09T11:41:51.694Z,80.11
2022-10-09T11:42:51.732Z,80.62
2022-10-09T11:43:51.685Z,80.51
2022-10-09T11:44:51.695Z,78.89
2022-10-09T11:45:51.709Z,79.29
2022-10-09T11:46:51.665Z,78.58
2022-10-09T11:47:52.260Z,80.41
2022-10-09T11:48:51.704Z,78.38
2022-10-09T11:49:51.645Z,79.19
2022-10-09T11:50:51.616Z,78.89
2022-10-09T11:51:51.633Z,78.08
2022-10-09T11:52:51.696Z,78.38
2022-10-09T11:53:51.581Z,77.97
2022-10-09T11:54:51.553Z,77.67
2022-10-09T11:55:51.583Z,76.92
2022-10-09T11:56:51.556Z,78.34
2022-10-09T11:57:51.846Z,78.64
2022-10-09T11:58:51.543Z,77.63
2022-10-09T11:59:51.490Z,78.04
2022-10-09T12:00:51.563Z,80.27
2022-10-09T12:01:51.499Z,79.16
2022-10-09T12:02:51.496Z,79.36
2022-10-09T12:03:51.446Z,79.93
2022-10-09T12:04:55.453Z,79.22
2022-10-09T12:05:51.425Z,79.22
2022-10-09T12:06:51.434Z,77.59
2022-10-09T12:07:51.431Z,78.51
2022-10-09T12:08:51.434Z,77.90
2022-10-09T12:09:51.379Z,78.51
2022-10-09T12:10:51.449Z,78.51
2022-10-09T12:11:51.367Z,77.59
2022-10-09T12:12:51.678Z,77.39
2022-10-09T12:13:51.369Z,79.22
2022-10-09T12:14:51.321Z,78.51
2022-10-09T12:15:51.386Z,78.00
2022-10-09T12:16:51.382Z,77.09
2022-10-09T12:17:51.302Z,78.10
2022-10-09T12:18:51.300Z,78.57
2022-10-09T12:19:51.307Z,78.57
2022-10-09T12:20:51.267Z,78.57
2022-10-09T12:21:51.263Z,77.15
2022-10-09T12:23:13.819Z,77.25
2022-10-09T12:23:52.251Z,77.76
2022-10-09T12:24:51.237Z,77.45
2022-10-09T12:25:51.221Z,76.85
2022-10-09T12:26:51.185Z,76.75
2022-10-09T12:27:51.173Z,77.76
2022-10-09T12:28:51.309Z,76.95
2022-10-09T12:29:51.171Z,77.76
2022-10-09T12:30:51.323Z,77.15
2022-10-09T12:31:51.196Z,77.09
2022-10-09T12:32:51.608Z,77.05
2022-10-09T12:33:51.115Z,78.00
2022-10-09T12:34:51.120Z,77.90
2022-10-09T12:35:51.110Z,77.80
2022-10-09T12:36:51.120Z,78.10
2022-10-09T12:37:51.094Z,77.25
2022-10-09T12:38:51.075Z,77.36
2022-10-09T12:39:51.081Z,77.29
2022-10-09T12:40:51.042Z,77.09
2022-10-09T12:41:51.045Z,77.80
2022-10-09T12:42:51.207Z,78.67
2022-10-09T12:43:51.003Z,76.98
2022-10-09T12:44:50.978Z,78.47
2022-10-09T12:45:51.067Z,77.70
2022-10-09T12:46:50.977Z,77.09
2022-10-09T12:47:50.985Z,76.98
2022-10-09T12:48:50.930Z,78.10
2022-10-09T12:49:50.945Z,77.36
2022-10-09T12:50:50.921Z,77.05
2022-10-09T12:51:53.768Z,76.95
2022-10-09T12:52:52.215Z,77.15
2022-10-09T12:53:50.874Z,76.95